Time;durP1;ratioP1;P1;durP2;ratioP2;P2;SDS_P1;SDS_P2;PMS_P1;PMS_P2;Temp;Humidity;BMP_temperature;BMP_pressure;BME280_temperature;BME280_humidity;BME280_pressure;Samples;Min_cycle;Max_cycle;Signal;HPM_P1;HPM_P2
2022/01/23 00:02:23;;;;;;;8.17;5.30;;;9.30;80.20;;;12.47;58.60;103256.22;5051554;28;20215;-62
2022/01/23 00:04:52;;;;;;;8.73;4.87;;;9.30;80.30;;;12.47;58.54;103245.66;5052819;28;20292;-63
2022/01/23 00:07:20;;;;;;;7.60;5.23;;;9.20;80.20;;;12.49;58.60;103249.00;5054125;28;20201;-62
2022/01/23 00:09:48;;;;;;;7.13;5.37;;;9.30;80.30;;;12.50;58.23;103253.34;5034758;28;20666;-62
2022/01/23 00:12:19;;;;;;;9.77;5.50;;;9.30;80.30;;;12.50;58.43;103253.34;5034199;28;20187;-61
2022/01/23 00:17:35;;;;;;;6.00;4.37;;;9.30;80.20;;;12.49;58.47;103244.56;5034558;28;20287;-61
2022/01/23 00:20:12;;;;;;;8.90;5.00;;;9.30;80.10;;;12.48;57.84;103236.78;5033882;28;20194;-60
2022/01/23 00:22:47;;;;;;;8.07;4.33;;;9.30;79.90;;;12.46;58.33;103238.69;5032544;28;20712;-63
2022/01/23 00:30:50;;;;;;;8.70;4.73;;;9.30;79.60;;;12.37;58.46;103228.88;5033372;28;20194;-63
2022/01/23 00:33:18;;;;;;;6.07;4.63;;;9.30;79.60;;;12.33;58.25;103227.47;5031659;28;20234;-61
2022/01/23 00:35:47;;;;;;;8.70;4.33;;;9.30;79.60;;;12.30;58.50;103227.69;5033261;28;20473;-61
2022/01/23 00:38:16;;;;;;;6.50;4.43;;;9.20;79.50;;;12.27;58.43;103231.41;5033641;28;20202;-62
2022/01/23 00:40:46;;;;;;;6.60;4.87;;;9.20;79.50;;;12.23;58.24;103240.56;5034524;28;20648;-60
2022/01/23 00:43:28;;;;;;;5.00;4.23;;;9.20;79.50;;;12.22;58.65;103228.31;5032121;28;20232;-61
2022/01/23 00:46:09;;;;;;;5.93;4.30;;;9.20;79.50;;;12.19;58.33;103232.03;5033575;28;20190;-62
2022/01/23 00:48:49;;;;;;;7.30;5.13;;;9.10;79.60;;;12.18;58.31;103246.22;5032492;28;20643;-59
2022/01/23 00:51:18;;;;;;;6.03;4.37;;;9.10;79.80;;;12.17;58.68;103239.25;5016392;28;20198;-60
2022/01/23 00:53:45;;;;;;;5.90;4.30;;;9.10;79.90;;;12.19;58.50;103242.59;5031671;28;20856;-59
2022/01/23 00:56:13;;;;;;;7.83;4.67;;;9.10;80.20;;;12.21;58.54;103239.84;5032318;28;20648;-61
2022/01/23 00:58:40;;;;;;;5.53;4.20;;;9.10;80.10;;;12.21;58.93;103243.34;5051862;28;20283;-60
2022/01/23 01:01:08;;;;;;;5.47;4.00;;;9.10;80.10;;;12.22;58.68;103242.34;5052871;28;20198;-63
2022/01/23 01:03:35;;;;;;;8.23;4.47;;;9.10;80.10;;;12.23;58.74;103245.84;5052766;28;20218;-62
2022/01/23 01:06:03;;;;;;;9.40;4.30;;;9.10;80.10;;;12.26;58.53;103242.97;5053449;28;20194;-62
2022/01/23 01:08:32;;;;;;;7.03;4.47;;;9.10;79.90;;;12.29;58.70;103241.88;5052548;28;20194;-62
2022/01/23 01:16:58;;;;;;;6.63;3.83;;;9.10;79.60;;;12.24;58.43;103227.22;5037222;28;20192;-60
2022/01/23 01:30:17;;;;;;;3.60;3.03;;;9.10;79.40;;;12.15;58.30;103233.25;5036869;28;20738;-61
2022/01/23 01:31:22;;;;;;;4.37;3.50;;;9.10;79.50;;;12.13;58.66;103232.53;5028996;28;20265;-61
2022/01/23 01:36:30;;;;;;;5.77;3.57;;;9.10;79.80;;;12.21;58.67;103234.56;5052004;28;20693;-60
2022/01/23 01:38:57;;;;;;;5.27;3.67;;;9.10;79.80;;;12.22;58.29;103239.72;5036819;28;20194;-63
2022/01/23 01:41:26;;;;;;;6.53;3.70;;;9.10;79.80;;;12.22;58.40;103239.72;5036913;28;20674;-62
2022/01/23 01:43:57;;;;;;;5.50;4.10;;;9.10;79.70;;;12.23;58.59;103248.47;5036134;28;20222;-61
2022/01/23 01:46:24;;;;;;;6.03;3.07;;;9.10;79.60;;;12.23;58.59;103259.88;5048820;28;20662;-61
2022/01/23 01:48:52;;;;;;;4.60;3.07;;;9.10;79.60;;;12.22;58.29;103252.91;5056100;28;20571;-60
2022/01/23 01:51:21;;;;;;;3.33;2.60;;;9.10;79.50;;;12.23;58.57;103254.59;5056371;28;20191;-59
2022/01/23 01:53:56;;;;;;;3.40;3.07;;;9.10;79.40;;;12.26;58.29;103257.97;5056450;28;20208;-62
2022/01/23 01:56:26;;;;;;;3.63;2.80;;;9.10;79.20;;;12.28;58.15;103271.88;5057062;28;20560;-60
2022/01/23 01:59:12;;;;;;;8.17;3.67;;;9.10;79.30;;;12.26;58.07;103269.38;5055278;28;20280;-61
2022/01/23 02:09:43;;;;;;;4.13;3.17;;;9.10;79.40;;;12.27;57.96;103259.63;5035969;28;20259;-63
2022/01/23 02:24:01;;;;;;;3.63;2.77;;;9.10;79.40;;;12.13;58.37;103271.28;5035120;28;20240;-63
2022/01/23 02:52:08;;;;;;;4.43;3.00;;;9.00;79.50;;;12.05;58.79;103263.97;5036424;28;20194;-62
2022/01/23 02:54:57;;;;;;;3.50;2.30;;;9.00;79.50;;;12.10;58.60;103264.47;5033871;28;20225;-60
2022/01/23 02:57:38;;;;;;;3.40;2.33;;;9.00;79.50;;;12.13;58.48;103264.22;5033638;28;20235;-61
2022/01/23 03:00:12;;;;;;;5.50;2.20;;;9.00;79.60;;;12.16;58.70;103271.91;5033832;28;20504;-62
2022/01/23 03:02:46;;;;;;;4.07;2.43;;;9.00;79.70;;;12.19;58.50;103274.28;5034583;28;20208;-60
2022/01/23 03:05:33;;;;;;;2.73;2.10;;;9.00;79.70;;;12.23;58.37;103275.72;5034887;28;20184;-62
2022/01/23 03:10:40;;;;;;;2.80;2.20;;;9.00;79.70;;;12.22;57.97;103258.19;5054653;28;20221;-63
2022/01/23 03:27:04;;;;;;;7.23;2.90;;;9.00;79.40;;;12.07;58.40;103258.59;5012526;28;20583;-60
2022/01/23 03:30:18;;;;;;;5.63;2.53;;;9.00;79.60;;;12.06;58.35;103255.13;5048293;28;20220;-63
2022/01/23 03:32:36;;;;;;;6.57;2.93;;;9.00;79.60;;;12.05;58.23;103256.06;5048024;28;20627;-62
2022/01/23 03:35:05;;;;;;;5.33;2.13;;;9.00;79.60;;;12.05;58.33;103258.69;5053225;28;20214;-62
2022/01/23 03:37:32;;;;;;;4.07;2.20;;;9.00;79.60;;;12.06;58.43;103257.75;5054076;28;20647;-61
2022/01/23 03:40:00;;;;;;;5.17;2.30;;;9.00;79.60;;;12.03;58.56;103258.00;5044910;28;20197;-63
2022/01/23 03:42:30;;;;;;;3.13;2.40;;;9.00;79.50;;;12.02;58.63;103266.03;5034020;28;20199;-63
2022/01/23 03:48:01;;;;;;;4.40;2.20;;;9.00;79.40;;;12.05;58.95;103261.34;5034488;28;20229;-63
2022/01/23 03:50:28;;;;;;;7.43;2.60;;;9.10;79.50;;;12.05;58.61;103261.34;5034044;28;20278;-60
2022/01/23 03:52:56;;;;;;;6.53;2.90;;;9.10;79.40;;;12.06;58.61;103263.03;5032600;28;20186;-59
2022/01/23 03:55:23;;;;;;;4.90;2.70;;;9.10;79.40;;;12.04;58.56;103266.75;5034183;28;20183;-62
2022/01/23 03:57:52;;;;;;;3.07;2.13;;;9.10;79.30;;;12.05;58.74;103266.63;5053667;28;20670;-63
2022/01/23 04:00:19;;;;;;;4.23;2.17;;;9.10;79.40;;;12.06;58.83;103263.03;5053714;28;20212;-62
2022/01/23 04:02:46;;;;;;;7.33;3.07;;;9.10;79.40;;;12.12;58.82;103261.72;5052181;28;20220;-61
2022/01/23 04:05:16;;;;;;;2.90;2.37;;;9.10;79.40;;;12.14;58.74;103260.63;5053781;28;20283;-62
2022/01/23 04:07:43;;;;;;;4.30;2.43;;;9.10;79.40;;;12.18;58.45;103267.34;5052486;28;20196;-61
2022/01/23 04:10:13;;;;;;;2.60;2.17;;;9.10;79.50;;;12.23;58.41;103270.44;5053444;28;20293;-63
2022/01/23 04:12:50;;;;;;;3.50;2.17;;;9.10;79.60;;;12.27;58.23;103270.19;5051693;28;20228;-62
2022/01/23 04:15:38;;;;;;;3.77;3.07;;;9.10;79.60;;;12.27;58.22;103281.59;5053608;28;20252;-60
2022/01/23 04:34:53;;;;;;;2.97;2.60;;;9.10;79.70;;;12.26;58.58;103279.09;5033217;28;20597;-61
2022/01/23 04:46:04;;;;;;;6.13;3.37;;;9.10;80.70;;;12.29;58.44;103289.41;5031107;28;20215;-63
2022/01/23 05:02:28;;;;;;;6.00;3.40;;;9.20;80.40;;;12.24;59.07;103295.88;5035967;28;20214;-61
2022/01/23 05:04:53;;;;;;;5.60;3.53;;;9.20;80.50;;;12.26;59.12;103294.94;5035540;28;20229;-63
2022/01/23 05:07:26;;;;;;;3.93;3.53;;;9.20;80.50;;;12.27;58.99;103300.06;5036762;28;20189;-61
2022/01/23 05:09:54;;;;;;;6.00;3.20;;;9.20;80.60;;;12.26;58.77;103300.22;5036932;28;20568;-63
2022/01/23 05:12:29;;;;;;;6.20;3.40;;;9.20;80.60;;;12.27;59.24;103301.88;5035819;28;20289;-65
2022/01/23 05:14:57;;;;;;;4.70;3.60;;;9.20;80.70;;;12.28;59.30;103300.91;5036651;28;20241;-63
2022/01/23 05:17:26;;;;;;;5.03;3.93;;;9.20;80.80;;;12.29;59.10;103299.97;5066450;28;20194;-63
2022/01/23 05:19:54;;;;;;;9.43;4.17;;;9.20;80.80;;;12.31;59.17;103301.53;5056781;28;20200;-62
2022/01/23 05:22:45;;;;;;;5.43;3.90;;;9.20;80.90;;;12.35;59.29;103299.47;5038588;28;20189;-63
2022/01/23 05:25:22;;;;;;;4.60;3.70;;;9.20;81.00;;;12.36;58.84;103295.88;5055582;28;20217;-62
2022/01/23 05:27:53;;;;;;;5.13;3.47;;;9.20;81.00;;;12.35;58.91;103295.03;5056508;28;20190;-62
2022/01/23 05:30:22;;;;;;;5.37;4.03;;;9.20;81.00;;;12.35;59.33;103294.19;5056484;28;20198;-62
2022/01/23 05:32:50;;;;;;;6.03;3.87;;;9.20;80.90;;;12.34;58.96;103297.81;5049229;28;20195;-63
2022/01/23 05:35:21;;;;;;;5.47;3.40;;;9.20;80.80;;;12.33;59.01;103290.84;5036494;28;20224;-62
2022/01/23 05:37:49;;;;;;;5.47;4.30;;;9.20;80.80;;;12.34;58.99;103297.81;5035269;28;20214;-63
2022/01/23 05:40:19;;;;;;;6.50;4.07;;;9.30;80.90;;;12.35;59.28;103294.19;5035580;28;20648;-63
2022/01/23 05:42:46;;;;;;;8.73;3.83;;;9.20;80.60;;;12.35;58.99;103305.59;5035065;28;20230;-62
2022/01/23 05:45:14;;;;;;;6.17;3.73;;;9.20;80.60;;;12.36;59.16;103295.88;5036793;28;20220;-62
2022/01/23 05:47:41;;;;;;;4.93;3.80;;;9.20;80.70;;;12.39;59.04;103296.47;5036684;28;20195;-63
2022/01/23 05:50:09;;;;;;;9.50;4.13;;;9.30;80.70;;;12.40;59.17;103292.03;5053290;28;20201;-63
2022/01/23 05:52:38;;;;;;;7.30;4.17;;;9.30;80.70;;;12.43;58.99;103303.16;5056132;28;20193;-62
2022/01/23 05:55:07;;;;;;;7.10;4.67;;;9.30;80.70;;;12.45;58.90;103297.78;5056133;28;20229;-63
2022/01/23 05:57:34;;;;;;;5.00;3.93;;;9.30;80.70;;;12.45;58.89;103295.97;5055933;28;20189;-62
2022/01/23 06:00:03;;;;;;;6.73;4.10;;;9.30;80.60;;;12.46;58.83;103302.09;5054934;28;20679;-60
2022/01/23 06:02:31;;;;;;;5.13;4.20;;;9.30;80.50;;;12.47;58.87;103309.06;5055696;28;20646;-63
2022/01/23 06:04:58;;;;;;;5.87;3.90;;;9.30;80.70;;;12.46;58.67;103316.13;5053884;28;20224;-63
2022/01/23 06:07:25;;;;;;;5.57;3.77;;;9.30;80.70;;;12.46;58.72;103312.66;5056056;28;20580;-61
2022/01/23 06:09:54;;;;;;;5.77;4.47;;;9.30;80.70;;;12.46;58.86;103318.78;5055987;28;20190;-62
2022/01/23 06:12:21;;;;;;;4.20;3.57;;;9.30;80.70;;;12.47;58.89;103316.97;5054457;28;20299;-64
2022/01/23 06:14:49;;;;;;;8.17;4.37;;;9.30;80.70;;;12.46;59.19;103318.78;5055801;28;20210;-62
2022/01/23 06:17:16;;;;;;;7.47;4.27;;;9.30;80.90;;;12.46;58.92;103308.22;5055546;28;20216;-63
2022/01/23 06:19:43;;;;;;;7.33;4.47;;;9.30;80.90;;;12.47;59.11;103324.91;5055914;28;20194;-63
2022/01/23 06:22:11;;;;;;;7.10;4.60;;;9.30;81.10;;;12.48;58.93;103326.59;5038822;28;20568;-62
2022/01/23 06:24:45;;;;;;;7.40;3.93;;;9.30;80.90;;;12.50;58.82;103328.16;5034233;28;20646;-61
2022/01/23 06:27:14;;;;;;;5.23;3.97;;;9.30;80.90;;;12.51;58.76;103331.59;5035540;28;20191;-62
2022/01/23 06:29:45;;;;;;;4.97;4.17;;;9.30;81.00;;;12.50;58.83;103335.22;5035388;28;20188;-63
2022/01/23 06:32:13;;;;;;;9.00;4.93;;;9.30;80.90;;;12.52;59.17;103341.22;5034417;28;20221;-63
2022/01/23 06:34:42;;;;;;;7.10;4.23;;;9.30;81.10;;;12.53;59.04;103337.59;5034030;28;20218;-63
2022/01/23 06:37:09;;;;;;;5.60;4.97;;;9.30;81.30;;;12.53;58.97;103335.81;5042669;28;20202;-63
2022/01/23 06:39:36;;;;;;;6.03;4.30;;;9.30;81.40;;;12.54;59.07;103342.78;5055126;28;20202;-58
2022/01/23 06:42:05;;;;;;;4.60;4.20;;;9.30;81.40;;;12.55;58.87;103333.88;5054223;28;20552;-63
2022/01/23 06:44:34;;;;;;;6.33;4.50;;;9.30;81.30;;;12.55;58.95;103338.34;5053606;28;20236;-63
2022/01/23 06:47:17;;;;;;;5.47;4.30;;;9.30;82.00;;;12.55;59.01;103343.63;5053768;28;20270;-62
2022/01/23 06:49:45;;;;;;;6.57;3.73;;;9.30;81.20;;;12.55;58.95;103338.34;4993695;28;20218;-63
2022/01/23 06:52:12;;;;;;;5.67;3.77;;;9.40;81.20;;;12.57;59.20;103339.06;4993729;28;20612;-62
2022/01/23 06:54:39;;;;;;;6.37;3.90;;;9.40;81.10;;;12.58;59.06;103340.72;4976795;28;20257;-61
2022/01/23 06:57:07;;;;;;;7.83;4.80;;;9.40;81.10;;;12.60;58.96;103334.34;4961690;28;20240;-62
2022/01/23 06:59:36;;;;;;;5.30;3.90;;;9.40;81.00;;;12.61;59.00;103343.13;4977671;28;20650;-62
2022/01/23 07:02:04;;;;;;;8.43;4.43;;;9.40;80.90;;;12.61;58.97;103340.47;4993540;28;20216;-63
2022/01/23 07:04:31;;;;;;;7.57;3.97;;;9.40;80.80;;;12.60;58.75;103342.28;4993281;28;20220;-61
2022/01/23 07:06:59;;;;;;;6.47;3.43;;;9.40;80.80;;;12.59;58.86;103335.34;4993619;28;20820;-61
2022/01/23 07:09:26;;;;;;;7.37;3.30;;;9.40;80.80;;;12.62;58.94;103339.53;4987716;28;20605;-60
2022/01/23 07:11:53;;;;;;;5.33;3.47;;;9.40;80.70;;;12.62;59.04;103337.72;4957596;28;20628;-63
2022/01/23 07:14:21;;;;;;;5.77;3.40;;;9.40;80.60;;;12.62;59.17;103347.47;4973340;28;20572;-62
2022/01/23 07:16:50;;;;;;;6.50;3.57;;;9.40;80.60;;;12.62;58.85;103344.81;4973583;28;20201;-60
2022/01/23 07:19:17;;;;;;;4.77;3.70;;;9.40;80.60;;;12.63;58.90;103357.91;4974114;28;20212;-62
2022/01/23 07:21:46;;;;;;;3.63;3.20;;;9.40;80.50;;;12.63;58.41;103351.75;4973753;28;20604;-62
2022/01/23 07:24:13;;;;;;;3.40;2.97;;;9.40;80.60;;;12.64;58.96;103358.75;4973452;28;20275;-62
2022/01/23 07:26:41;;;;;;;5.63;3.30;;;9.40;80.60;;;12.65;58.75;103360.41;4999936;28;20293;-63
2022/01/23 07:29:08;;;;;;;3.90;2.77;;;9.40;80.60;;;12.64;58.56;103364.88;5034655;28;20644;-62
2022/01/23 07:34:07;;;;;;;5.40;3.27;;;9.40;80.60;;;12.63;58.76;103362.34;5032606;28;20222;-62
2022/01/23 07:36:35;;;;;;;4.07;3.33;;;9.40;80.60;;;12.66;58.94;103367.38;5034400;28;20191;-60
2022/01/23 07:39:04;;;;;;;5.60;3.63;;;9.50;80.60;;;12.70;58.58;103374.09;5034503;28;20576;-63
2022/01/23 07:41:32;;;;;;;4.37;2.80;;;9.50;80.60;;;12.71;58.44;103375.78;5034218;28;20189;-62
2022/01/23 07:43:59;;;;;;;5.60;3.23;;;9.50;80.50;;;12.72;58.77;103372.16;5052435;28;20677;-63
2022/01/23 07:46:27;;;;;;;5.50;3.07;;;9.50;80.40;;;12.72;58.52;103377.44;5053901;28;20553;-62
2022/01/23 07:48:55;;;;;;;4.43;2.80;;;9.50;80.30;;;12.73;58.57;103379.13;5054349;28;20182;-63
2022/01/23 07:51:23;;;;;;;4.97;3.20;;;9.50;80.30;;;12.73;58.72;103379.97;5052938;28;20201;-63
2022/01/23 07:53:51;;;;;;;5.50;3.53;;;9.50;80.20;;;12.76;58.79;103381.53;5053605;28;20237;-62
2022/01/23 07:56:19;;;;;;;4.83;3.03;;;9.60;80.30;;;12.78;58.49;103385.75;5052722;28;20203;-62
2022/01/23 07:58:46;;;;;;;3.93;2.97;;;9.60;80.30;;;12.80;58.42;103390.91;5052354;28;20194;-61
2022/01/23 08:01:14;;;;;;;3.23;2.47;;;9.60;80.30;;;12.83;58.26;103395.94;5053571;28;20200;-65
2022/01/23 08:03:42;;;;;;;4.33;2.90;;;9.60;80.20;;;12.85;58.29;103399.28;5053372;28;20206;-62
2022/01/23 08:06:11;;;;;;;4.20;3.03;;;9.60;80.00;;;12.86;58.43;103408.88;5053549;28;20255;-62
2022/01/23 08:08:40;;;;;;;4.97;2.97;;;9.60;80.00;;;12.90;58.31;103412.97;5054039;28;20268;-62
2022/01/23 08:11:08;;;;;;;5.40;3.27;;;9.70;80.00;;;12.95;58.45;103412.59;5053541;28;20629;-60
2022/01/23 08:13:36;;;;;;;3.97;2.83;;;9.70;79.90;;;12.96;58.29;103407.19;5052475;28;20304;-63
2022/01/23 08:16:04;;;;;;;4.67;3.37;;;9.70;79.90;;;13.00;58.13;103413.09;5039363;28;20301;-61
2022/01/23 08:18:32;;;;;;;5.07;2.93;;;9.70;79.90;;;13.02;58.05;103417.28;5033463;28;20190;-62
2022/01/23 08:20:59;;;;;;;5.50;2.87;;;9.70;79.80;;;13.07;57.96;103414.28;5032612;28;20210;-61
2022/01/23 08:23:27;;;;;;;3.30;2.53;;;9.80;79.80;;;13.09;58.03;103418.50;5032297;28;20683;-62
2022/01/23 08:25:55;;;;;;;5.77;3.30;;;9.80;79.60;;;13.12;57.72;103415.56;5032107;28;20611;-62
2022/01/23 08:28:23;;;;;;;3.70;2.97;;;9.80;79.20;;;13.13;57.53;103425.19;5032950;28;20187;-64
2022/01/23 08:30:50;;;;;;;8.87;3.40;;;9.80;79.30;;;13.16;57.90;103424.97;5034624;28;20549;-60
2022/01/23 08:33:18;;;;;;;3.30;2.80;;;9.90;79.30;;;13.17;57.63;103434.56;5031640;28;20250;-64
2022/01/23 08:35:45;;;;;;;4.93;3.30;;;9.90;79.30;;;13.17;57.34;103431.91;5033636;28;20240;-61
2022/01/23 08:38:14;;;;;;;3.97;2.73;;;9.90;79.10;;;13.17;57.55;103436.38;5033519;28;20195;-61
2022/01/23 08:43:12;;;;;;;4.03;2.60;;;9.90;79.10;;;13.20;57.45;103447.53;5032015;28;20253;-62
2022/01/23 08:45:40;;;;;;;5.40;2.83;;;9.90;79.00;;;13.23;57.29;103447.31;5033328;28;20675;-62
2022/01/23 08:48:09;;;;;;;5.07;2.57;;;9.90;78.90;;;13.24;57.35;103451.59;5034187;28;20629;-62
2022/01/23 08:50:37;;;;;;;3.20;2.70;;;9.90;79.10;;;13.24;57.14;103453.44;5033568;28;20182;-63
2022/01/23 08:53:04;;;;;;;4.40;2.97;;;10.00;77.80;;;13.23;57.29;103457.88;5031563;28;20297;-63
2022/01/23 08:55:33;;;;;;;5.87;3.10;;;10.00;77.70;;;13.26;57.22;103447.06;5032959;28;20715;-63
2022/01/23 08:58:00;;;;;;;3.10;2.77;;;10.00;77.80;;;13.29;57.29;103452.06;5032963;28;20414;-62
2022/01/23 09:00:30;;;;;;;3.57;2.37;;;10.00;77.70;;;13.33;57.15;103448.25;5033313;28;20186;-63
2022/01/23 09:02:58;;;;;;;5.00;3.00;;;10.10;77.60;;;13.39;57.05;103449.53;5034140;28;20205;-64
2022/01/23 09:05:28;;;;;;;4.10;2.47;;;10.10;77.70;;;13.41;57.08;103444.94;5031301;28;20566;-64
2022/01/23 09:07:55;;;;;;;5.27;2.90;;;10.10;77.60;;;13.45;56.98;103452.50;5033119;28;20191;-64
2022/01/23 09:10:27;;;;;;;5.03;3.27;;;10.10;77.50;;;13.47;56.86;103453.22;5033315;28;20527;-63
2022/01/23 09:15:24;;;;;;;6.57;3.03;;;10.20;77.40;;;13.48;56.82;103446.97;5032786;28;20197;-61
2022/01/23 09:17:52;;;;;;;4.57;2.53;;;10.20;77.10;;;13.50;56.67;103450.31;5032533;28;20205;-61
2022/01/23 09:20:20;;;;;;;5.57;3.20;;;10.20;77.10;;;13.54;56.52;103451.75;5032757;28;20285;-61
2022/01/23 09:22:47;;;;;;;9.00;3.03;;;10.30;76.90;;;13.58;56.59;103453.19;5014651;28;20289;-62
2022/01/23 09:25:16;;;;;;;5.87;3.07;;;10.30;77.10;;;13.61;56.83;103456.53;5032440;28;20210;-62
2022/01/23 09:27:43;;;;;;;5.37;2.83;;;10.30;76.90;;;13.66;56.53;103454.34;5031651;28;20683;-60
2022/01/23 09:30:22;;;;;;;4.10;2.50;;;10.40;76.90;;;13.74;56.43;103462.50;5031534;28;20683;-62
2022/01/23 09:32:52;;;;;;;6.50;2.77;;;10.40;77.00;;;13.83;56.46;103461.72;5032206;28;20210;-62
2022/01/23 09:35:19;;;;;;;3.73;2.70;;;10.40;76.70;;;13.91;55.66;103464.53;5035125;28;20191;-61
2022/01/23 09:37:46;;;;;;;3.53;2.50;;;10.50;76.80;;;13.96;56.03;103460.56;5036318;28;20190;-63
2022/01/23 09:40:14;;;;;;;3.60;2.87;;;10.60;76.50;;;14.04;55.91;103462.56;5035185;28;20608;-63
2022/01/23 09:42:45;;;;;;;3.77;2.47;;;10.70;76.30;;;14.15;55.75;103460.69;5035321;28;20678;-63
2022/01/23 09:45:13;;;;;;;3.87;2.37;;;10.70;76.00;;;14.25;55.55;103453.63;5035634;28;20317;-60
2022/01/23 09:47:42;;;;;;;3.80;2.80;;;10.90;75.90;;;14.31;55.22;103462.88;5036175;28;20535;-63
2022/01/23 09:50:14;;;;;;;4.93;2.53;;;11.00;75.40;;;14.39;54.88;103459.56;5035872;28;20222;-64
2022/01/23 09:52:42;;;;;;;4.87;2.37;;;11.00;74.40;;;14.48;54.74;103454.31;5046541;28;20214;-62
2022/01/23 09:55:12;;;;;;;3.77;2.73;;;11.10;74.50;;;14.62;54.59;103459.25;5055982;28;20273;-64
2022/01/23 09:57:43;;;;;;;4.43;2.60;;;11.20;74.60;;;14.79;54.06;103461.28;5055017;28;20198;-64
2022/01/23 10:00:13;;;;;;;4.23;2.40;;;11.30;74.00;;;14.90;54.08;103466.44;5055747;28;20198;-62
2022/01/23 10:02:41;;;;;;;4.03;2.80;;;11.40;73.80;;;14.98;53.45;103470.25;5055071;28;20200;-62
2022/01/23 10:05:11;;;;;;;3.40;2.20;;;11.50;72.90;;;14.98;53.11;103462.28;5055457;28;20277;-63
2022/01/23 10:07:41;;;;;;;3.70;2.07;;;11.60;72.70;;;14.95;52.82;103459.94;5053430;28;20198;-63
2022/01/23 10:10:15;;;;;;;5.10;2.13;;;11.60;72.10;;;14.84;52.76;103459.06;5035810;28;20221;-63
2022/01/23 10:12:47;;;;;;;4.80;2.43;;;11.60;71.80;;;14.74;52.96;103466.13;5035007;28;20190;-62
2022/01/23 10:15:14;;;;;;;2.20;2.00;;;11.60;71.60;;;14.73;53.04;103466.28;5035519;28;20535;-62
2022/01/23 10:17:42;;;;;;;3.40;2.20;;;11.50;71.40;;;14.70;53.04;103478.00;5035664;28;20187;-62
2022/01/23 10:20:14;;;;;;;4.53;2.20;;;11.50;71.50;;;14.64;52.85;103473.22;5035666;28;20270;-63
2022/01/23 10:22:45;;;;;;;6.63;2.53;;;11.40;71.60;;;14.55;52.94;103479.31;5035127;28;20675;-63
2022/01/23 10:25:16;;;;;;;5.27;2.70;;;11.40;71.60;;;14.50;53.22;103472.75;5036432;28;20277;-62
2022/01/23 10:28:02;;;;;;;3.13;2.43;;;11.30;71.70;;;14.44;53.25;103476.75;5034048;28;20190;-62
2022/01/23 10:30:34;;;;;;;3.70;2.40;;;11.30;72.00;;;14.47;53.36;103473.00;5035274;28;20191;-61
2022/01/23 10:33:07;;;;;;;2.30;2.10;;;11.30;72.20;;;14.49;52.99;103477.22;5033647;28;20285;-63
2022/01/23 10:35:57;;;;;;;3.80;2.70;;;11.20;72.10;;;14.46;53.13;103477.47;5033854;28;20217;-63
2022/01/23 10:38:28;;;;;;;3.77;2.50;;;11.20;72.00;;;14.46;53.27;103477.47;5034097;28;20285;-62
2022/01/23 10:41:13;;;;;;;6.83;2.50;;;11.20;72.20;;;14.44;53.26;103468.81;5044636;28;20280;-63
2022/01/23 10:47:28;;;;;;;4.60;2.47;;;11.20;72.30;;;14.44;53.04;103463.50;5052948;28;20214;-62
2022/01/23 10:49:21;;;;;;;4.77;2.60;;;11.20;72.40;;;14.47;53.55;103468.56;5053137;28;20237;-63
2022/01/23 10:51:50;;;;;;;3.70;2.63;;;11.20;72.70;;;14.50;53.43;103468.25;5053457;28;20190;-62
2022/01/23 10:54:21;;;;;;;3.03;2.37;;;11.20;72.60;;;14.52;53.17;103463.69;5054213;28;20599;-61
2022/01/23 10:57:09;;;;;;;2.67;2.37;;;11.20;72.50;;;14.48;53.46;103470.22;5047982;28;20217;-63
2022/01/23 10:59:44;;;;;;;4.27;2.60;;;11.20;72.40;;;14.49;53.16;103465.75;5033712;28;20285;-62
2022/01/23 11:02:14;;;;;;;4.87;2.63;;;11.20;72.30;;;14.50;53.20;103465.63;5033095;28;20546;-63
2022/01/23 11:05:01;;;;;;;2.63;2.00;;;11.20;72.40;;;14.50;53.26;103468.25;5034025;28;20206;-63
2022/01/23 11:07:32;;;;;;;2.57;2.27;;;11.30;72.50;;;14.53;53.33;103462.72;5032956;28;20222;-61
2022/01/23 11:10:06;;;;;;;3.17;2.20;;;11.30;72.30;;;14.56;53.28;103457.16;5034589;28;20218;-62
2022/01/23 11:18:12;;;;;;;2.97;2.40;;;11.30;72.30;;;14.60;53.02;103453.25;5054109;28;20209;-63
2022/01/23 11:20:43;;;;;;;5.77;2.67;;;11.30;72.20;;;14.60;52.97;103450.59;5052967;28;20197;-62
2022/01/23 11:23:21;;;;;;;5.50;2.60;;;11.30;72.00;;;14.62;53.05;103446.00;5052123;28;20285;-62
2022/01/23 11:26:09;;;;;;;3.37;2.57;;;11.40;72.10;;;14.60;53.21;103441.81;5054149;28;20229;-63
2022/01/23 11:28:43;;;;;;;3.80;2.67;;;11.40;72.00;;;14.66;52.83;103441.28;5052573;28;20192;-63
2022/01/23 11:31:13;;;;;;;3.17;2.40;;;11.40;72.30;;;14.70;53.08;103438.22;5050950;28;20198;-63
2022/01/23 11:33:41;;;;;;;2.60;2.37;;;11.40;72.20;;;14.75;52.99;103440.47;5053677;28;20206;-62
2022/01/23 11:36:09;;;;;;;2.53;2.33;;;11.40;72.20;;;14.78;52.79;103441.06;5054161;28;20244;-62
2022/01/23 11:38:39;;;;;;;4.17;2.87;;;11.50;72.20;;;14.84;53.02;103437.00;5054136;28;20194;-63
2022/01/23 11:55:07;;;;;;;8.07;3.23;;;11.50;71.60;;;14.74;52.75;103434.31;5033666;28;20214;-62
2022/01/23 11:57:44;;;;;;;4.27;2.87;;;11.50;71.50;;;14.74;52.63;103434.31;5032833;28;20193;-59
2022/01/23 12:00:18;;;;;;;2.93;2.47;;;11.50;72.40;;;14.75;52.67;103428.06;5033705;28;20705;-62
2022/01/23 12:03:10;;;;;;;4.33;2.77;;;11.50;71.70;;;14.74;52.83;103429.00;5033669;28;20198;-63
2022/01/23 12:05:41;;;;;;;3.43;2.07;;;11.50;71.40;;;14.79;52.84;103428.59;5033497;28;20194;-62
2022/01/23 12:08:28;;;;;;;2.70;2.20;;;11.50;71.60;;;14.77;52.82;103427.91;5033753;28;20265;-62
2022/01/23 12:17:05;;;;;;;2.73;2.30;;;11.60;71.60;;;14.82;52.92;103428.34;5033042;28;20194;-60
2022/01/23 12:19:44;;;;;;;4.60;2.90;;;11.60;71.70;;;14.80;52.74;103431.16;5018385;28;20204;-60
2022/01/23 12:22:42;;;;;;;4.27;3.17;;;11.60;71.50;;;14.75;52.72;103433.34;5033265;28;20199;-62
2022/01/23 12:25:21;;;;;;;3.27;2.40;;;11.60;71.50;;;14.78;52.69;103429.59;5032296;28;20210;-61
2022/01/23 12:28:20;;;;;;;3.57;2.87;;;11.60;71.60;;;14.77;52.43;103430.56;5033665;28;20224;-60
2022/01/23 12:30:51;;;;;;;3.13;2.00;;;11.70;71.60;;;14.81;52.81;103424.84;5033420;28;20662;-58
2022/01/23 12:33:44;;;;;;;3.33;2.23;;;11.70;71.50;;;14.81;52.85;103430.16;5032248;28;20238;-62
2022/01/23 12:36:38;;;;;;;4.50;2.10;;;11.70;71.50;;;14.78;52.96;103441.06;5035003;28;20191;-60
2022/01/23 12:39:18;;;;;;;4.03;2.30;;;11.70;71.40;;;14.78;52.81;103430.44;5033308;28;20204;-62
2022/01/23 12:42:02;;;;;;;3.80;2.63;;;11.70;71.10;;;14.77;52.49;103434.06;5033468;28;20694;-62
2022/01/23 12:44:36;;;;;;;4.40;2.20;;;11.70;71.00;;;14.80;52.47;103432.94;5032848;28;20214;-58
2022/01/23 12:47:07;;;;;;;5.03;2.50;;;11.70;71.10;;;14.80;52.39;103428.50;5031701;28;20221;-62
2022/01/23 12:49:38;;;;;;;5.40;2.50;;;11.70;71.00;;;14.81;52.71;103427.50;5032748;28;20545;-62
2022/01/23 12:52:17;;;;;;;4.77;2.30;;;11.60;70.70;;;14.80;52.33;103428.50;5050658;28;20197;-59
2022/01/23 12:54:58;;;;;;;4.07;2.27;;;11.70;70.90;;;14.84;52.27;103431.69;5051146;28;20210;-60
2022/01/23 12:57:42;;;;;;;2.33;2.03;;;11.70;71.90;;;14.83;52.31;103425.53;5053288;28;20274;-63
2022/01/23 13:00:19;;;;;;;2.37;1.90;;;11.60;70.70;;;14.81;52.47;103419.53;5053091;28;20186;-58
2022/01/23 13:02:50;;;;;;;2.23;1.87;;;11.70;70.80;;;14.81;52.29;103418.69;5052298;28;20654;-58
2022/01/23 13:05:19;;;;;;;6.30;2.40;;;11.70;70.50;;;14.85;52.11;103420.13;5053017;28;20655;-59
2022/01/23 13:08:07;;;;;;;3.30;2.00;;;11.70;70.40;;;14.86;52.03;103422.63;5041546;28;20256;-57
2022/01/23 13:10:56;;;;;;;2.70;2.10;;;11.70;70.50;;;14.87;52.22;103419.00;5019004;28;20202;-58
2022/01/23 13:16:20;;;;;;;1.93;1.73;;;11.70;70.40;;;14.93;52.12;103411.50;5036239;28;20190;-61
2022/01/23 13:30:21;;;;;;;3.10;2.33;;;11.80;70.00;;;14.90;51.37;103417.91;5036386;28;20221;-61
2022/01/23 13:32:50;;;;;;;2.67;2.10;;;11.70;69.70;;;14.85;51.94;103410.38;5035856;28;20265;-62
2022/01/23 13:35:21;;;;;;;2.43;2.10;;;11.70;70.50;;;14.83;51.69;103417.59;5036225;28;20635;-62
2022/01/23 13:37:56;;;;;;;1.87;1.60;;;11.70;69.80;;;14.81;51.75;103418.69;5036617;28;20189;-61